Pagrindinis puslapis
METAR-TAF:

METAR-TAF

Oro uostai :

Plant City, Florida, Jungtinės Amerikos Valstijos

platuma: 28-00-01N, ilguma: 082-09-51W, Aukštis: 47 m

Dabartinis oras

Ataskaita buvo paskelbta 22 minutes, ne 08:15 UTC
Vėjas 4 kt iš Šiaurės Vakarų
Temperatūra 13°C
Drėgmė 100%
Slėgis 1019 hPa
Matomumas: 16.1 km
Išsisklaidę debesys ne aukštis 2400 ft
Išsisklaidę debesys ne aukštis 6000 ft
Su prošvaistėmis ne aukštis 12000 ft
dulksna

METAR: KPCM 270815Z AUTO 31004KT 10SM -DZ SCT024 SCT060 BKN120 13/13 A3009 RMK AO2

Laikas: 03:37 (08:37 UTC)


TAF: trūkstamas

Orai ataskaitas ir orų prognozės (METAR, TAF).

turimą stotys yra geltonos ir raudonos taškus žemėlapyje.

Perkelti pele per norėdami pamatyti stoties vardą.

Tada spustelėkite, norėdami matyti oro stebėjimo ir prognozės.

Norėdami pakeisti žemėlapį: spustelėkite ant žalios mygtukų su juodo kryžiaus žemyn,; žalią mygtuką su brūkšneliu, jei norite nutolinti; arba žalių rodyklių gretimoms žemėlapius.


METAR-TAF: